Time;durP1;ratioP1;P1;durP2;ratioP2;P2;SDS_P1;SDS_P2;PMS_P1;PMS_P2;Temp;Humidity;BMP_temperature;BMP_pressure;BME280_temperature;BME280_humidity;BME280_pressure;Samples;Min_cycle;Max_cycle;Signal;HPM_P1;HPM_P2
2024/01/04 00:01:14;;;;;;;3.13;0.20;;;;;;;-5.83;60.96;100821.75;5043210;28;20491;-76
2024/01/04 00:03:41;;;;;;;2.47;0.52;;;;;;;-5.76;61.10;100826.31;5040222;28;20127;-73
2024/01/04 00:06:08;;;;;;;0.45;0.35;;;;;;;-5.73;60.58;100827.25;5043463;28;20041;-72
2024/01/04 00:08:35;;;;;;;2.15;1.15;;;;;;;-5.75;60.62;100817.88;5039194;28;20060;-73
2024/01/04 00:11:04;;;;;;;2.40;0.28;;;;;;;-5.81;61.43;100811.59;5043815;28;20048;-73
2024/01/04 00:13:31;;;;;;;3.15;0.30;;;;;;;-5.75;62.00;100827.19;5041674;28;20041;-72
2024/01/04 00:15:58;;;;;;;0.82;0.38;;;;;;;-5.73;61.89;100819.59;5045753;28;20056;-72
2024/01/04 00:18:27;;;;;;;0.90;0.60;;;;;;;-5.69;62.30;100824.91;5042223;28;20421;-73
2024/01/04 00:20:54;;;;;;;2.65;0.70;;;;;;;-5.69;62.41;100826.59;5041635;28;20049;-73
2024/01/04 00:23:21;;;;;;;1.30;0.20;;;;;;;-5.70;62.95;100825.69;5043973;28;20049;-79
2024/01/04 00:25:48;;;;;;;1.30;0.45;;;;;;;-5.73;63.70;100819.59;5050628;28;20132;-79
2024/01/04 00:28:19;;;;;;;2.42;0.30;;;;;;;-5.75;64.65;100812.78;5051045;28;20590;-78
2024/01/04 00:30:45;;;;;;;2.53;0.30;;;;;;;-5.73;64.23;100814.50;5047573;28;20049;-79
2024/01/04 00:33:12;;;;;;;3.20;0.30;;;;;;;-5.73;64.43;100815.38;5051220;28;20529;-80
2024/01/04 00:35:41;;;;;;;4.63;0.20;;;;;;;-5.76;64.04;100800.81;5048665;28;20076;-79
2024/01/04 00:38:08;;;;;;;2.30;0.38;;;;;;;-5.75;65.09;100807.69;5050575;28;20049;-79
2024/01/04 00:40:39;;;;;;;4.65;0.65;;;;;;;-5.68;64.76;100800.28;5048431;28;20060;-79
2024/01/04 00:43:06;;;;;;;1.67;0.40;;;;;;;-5.72;64.61;100791.66;5043003;28;20054;-79
2024/01/04 00:45:33;;;;;;;1.65;0.50;;;;;;;-5.68;65.23;100806.25;5049734;28;20483;-79
2024/01/04 00:48:02;;;;;;;3.88;0.75;;;;;;;-5.66;65.08;100801.25;5045089;28;20094;-80
2024/01/04 00:50:29;;;;;;;0.93;0.50;;;;;;;-5.66;64.92;100801.25;5040707;28;20046;-80
2024/01/04 00:52:57;;;;;;;1.75;0.43;;;;;;;-5.64;64.75;100799.59;5042695;28;20053;-78
2024/01/04 00:55:24;;;;;;;0.98;0.20;;;;;;;-5.70;64.87;100787.47;5040237;28;20128;-79
2024/01/04 00:57:51;;;;;;;2.13;0.50;;;;;;;-5.63;64.95;100793.72;5046626;28;20073;-79
2024/01/04 01:00:25;;;;;;;2.15;0.30;;;;;;;-5.63;64.93;100816.66;5045815;28;20049;-79
2024/01/04 01:02:52;;;;;;;0.45;0.30;;;;;;;-5.61;64.41;100802.28;5048462;28;20102;-79
2024/01/04 01:05:19;;;;;;;2.53;0.40;;;;;;;-5.66;64.35;100806.34;5042652;28;20046;-78
2024/01/04 01:07:46;;;;;;;2.35;0.75;;;;;;;-5.62;64.31;100818.41;5049043;28;20143;-79
2024/01/04 01:10:14;;;;;;;3.10;0.40;;;;;;;-5.64;64.96;100808.16;5046108;28;20138;-78
2024/01/04 01:12:42;;;;;;;2.88;0.40;;;;;;;-5.67;66.10;100812.22;5033619;28;20453;-76
2024/01/04 01:15:10;;;;;;;1.27;0.50;;;;;;;-5.67;66.80;100808.00;5041064;28;20090;-75
2024/01/04 01:17:37;;;;;;;0.32;0.20;;;;;;;-5.64;67.02;100804.69;5041035;28;20048;-76
2024/01/04 01:20:07;;;;;;;6.18;0.95;;;;;;;-5.64;66.95;100820.91;5039427;28;20084;-75
2024/01/04 01:22:35;;;;;;;1.45;0.47;;;;;;;-5.68;67.08;100802.84;5039267;28;20101;-76
2024/01/04 01:25:02;;;;;;;1.73;0.45;;;;;;;-5.67;67.09;100807.13;5038496;28;20045;-76
2024/01/04 01:27:30;;;;;;;3.55;0.60;;;;;;;-5.66;66.86;100814.84;5042029;28;20041;-76
2024/01/04 01:29:57;;;;;;;1.20;0.50;;;;;;;-5.66;66.00;100798.69;5041798;28;20621;-76
2024/01/04 01:32:24;;;;;;;1.40;0.40;;;;;;;-5.65;66.07;100805.53;5041066;28;20053;-72
2024/01/04 01:34:52;;;;;;;0.60;0.17;;;;;;;-5.65;65.25;100813.16;5042197;28;20068;-72
2024/01/04 01:37:19;;;;;;;1.55;0.40;;;;;;;-5.64;65.28;100809.81;5039631;28;20048;-72
2024/01/04 01:39:46;;;;;;;0.82;0.30;;;;;;;-5.67;64.89;100790.16;5037771;28;20474;-73
2024/01/04 01:42:13;;;;;;;3.83;1.63;;;;;;;-5.63;65.21;100796.28;5041106;28;20052;-73
2024/01/04 01:44:42;;;;;;;2.15;0.50;;;;;;;-5.64;65.27;100794.50;5039225;28;20787;-73
2024/01/04 01:47:10;;;;;;;2.03;0.57;;;;;;;-5.62;64.97;100805.66;5038440;28;20404;-73
2024/01/04 01:49:37;;;;;;;1.40;0.70;;;;;;;-5.63;65.22;100796.28;5038407;28;20842;-73
2024/01/04 01:52:04;;;;;;;2.50;0.45;;;;;;;-5.72;65.00;100789.09;5041556;28;20213;-72
2024/01/04 01:54:32;;;;;;;1.60;0.50;;;;;;;-5.66;65.30;100799.56;5039176;28;20048;-73
2024/01/04 01:56:59;;;;;;;4.00;0.63;;;;;;;-5.74;65.09;100798.34;5037436;28;20734;-72
2024/01/04 01:59:27;;;;;;;2.50;0.32;;;;;;;-5.75;65.13;100787.28;5037182;28;20068;-73
2024/01/04 02:01:56;;;;;;;1.25;0.32;;;;;;;-5.68;65.60;100806.25;5039708;28;20060;-73
2024/01/04 02:04:23;;;;;;;2.92;0.60;;;;;;;-5.70;66.55;100809.53;5038739;28;20072;-73
2024/01/04 02:06:50;;;;;;;2.17;0.52;;;;;;;-5.72;66.48;100806.94;5039673;28;20072;-73
2024/01/04 02:09:17;;;;;;;3.70;0.50;;;;;;;-5.82;66.58;100784.41;5042688;28;20053;-74
2024/01/04 02:11:45;;;;;;;1.77;0.40;;;;;;;-5.84;67.26;100794.53;5038819;28;20120;-74
2024/01/04 02:14:14;;;;;;;3.95;2.20;;;;;;;-5.80;67.12;100793.84;5040085;28;20044;-73
2024/01/04 02:16:41;;;;;;;3.92;0.50;;;;;;;-5.82;67.26;100794.59;5038056;28;20498;-73
2024/01/04 02:19:10;;;;;;;0.75;0.60;;;;;;;-5.82;66.68;100792.91;5031696;28;20049;-73
2024/01/04 02:21:38;;;;;;;2.38;0.60;;;;;;;-5.85;67.52;100782.59;5041276;28;20056;-78
2024/01/04 02:24:07;;;;;;;1.25;0.60;;;;;;;-5.81;67.19;100784.47;5041794;28;20793;-75
2024/01/04 02:26:34;;;;;;;0.40;0.17;;;;;;;-5.83;66.42;100788.63;5035012;28;20477;-76
2024/01/04 02:29:06;;;;;;;2.00;0.60;;;;;;;-5.89;67.20;100778.19;5041993;28;20052;-75
2024/01/04 02:31:33;;;;;;;1.92;0.55;;;;;;;-5.83;67.41;100787.75;5038335;28;20131;-75
2024/01/04 02:34:00;;;;;;;4.03;0.50;;;;;;;-5.84;67.85;100792.00;5041914;28;20494;-75
2024/01/04 02:36:27;;;;;;;2.17;0.60;;;;;;;-5.83;67.95;100785.22;5039892;28;20111;-76
2024/01/04 02:38:54;;;;;;;0.57;0.25;;;;;;;-5.85;67.52;100795.31;5041725;28;20037;-75
2024/01/04 02:41:22;;;;;;;0.40;0.30;;;;;;;-5.85;66.71;100785.13;5040969;28;20053;-75
2024/01/04 02:43:50;;;;;;;1.30;0.60;;;;;;;-5.88;66.70;100785.00;5044032;28;20076;-76
2024/01/04 02:46:17;;;;;;;1.77;0.57;;;;;;;-5.85;66.23;100785.13;5044248;28;20092;-76
2024/01/04 02:48:49;;;;;;;1.45;0.45;;;;;;;-5.83;66.20;100780.97;5045126;28;20080;-75
2024/01/04 02:51:16;;;;;;;2.08;0.50;;;;;;;-5.82;65.48;100780.16;5043243;28;20084;-76
2024/01/04 02:53:43;;;;;;;1.33;0.40;;;;;;;-5.81;65.39;100783.59;5041914;28;20491;-75
2024/01/04 02:56:10;;;;;;;1.58;0.30;;;;;;;-5.82;64.46;100780.16;5043480;28;20049;-75
2024/01/04 02:58:39;;;;;;;5.55;0.17;;;;;;;-5.86;64.58;100773.22;5045965;28;20052;-75
2024/01/04 03:01:06;;;;;;;1.05;0.40;;;;;;;-5.85;64.87;100784.25;5042415;28;20103;-75
2024/01/04 03:03:34;;;;;;;0.43;0.20;;;;;;;-5.80;65.66;100783.66;5044856;28;20077;-77
2024/01/04 03:06:01;;;;;;;1.17;0.50;;;;;;;-5.82;66.23;100789.50;5029107;28;20060;-75
2024/01/04 03:08:28;;;;;;;1.15;0.32;;;;;;;-5.85;66.40;100790.22;5042866;28;20049;-75
2024/01/04 03:10:55;;;;;;;1.70;0.60;;;;;;;-5.87;67.27;100786.72;5043182;28;20073;-74
2024/01/04 03:13:22;;;;;;;2.67;0.50;;;;;;;-5.94;66.93;100779.66;5040452;28;20053;-75
2024/01/04 03:15:50;;;;;;;2.70;0.80;;;;;;;-5.88;66.69;100784.13;5041629;28;20080;-75
2024/01/04 03:18:22;;;;;;;1.88;0.60;;;;;;;-5.89;65.92;100777.31;5045022;28;20050;-74
2024/01/04 03:20:49;;;;;;;1.35;0.30;;;;;;;-5.91;65.88;100782.31;5042951;28;20052;-75
2024/01/04 03:23:16;;;;;;;3.40;0.32;;;;;;;-5.89;65.85;100780.72;5040078;28;20072;-75
2024/01/04 03:25:44;;;;;;;0.88;0.43;;;;;;;-5.89;65.97;100775.63;5043086;28;20052;-75
2024/01/04 03:28:11;;;;;;;0.80;0.40;;;;;;;-5.87;66.57;100783.31;5045227;28;20041;-76
2024/01/04 03:30:38;;;;;;;2.45;0.30;;;;;;;-5.95;65.98;100762.63;5040550;28;20076;-75
2024/01/04 03:33:06;;;;;;;2.55;0.60;;;;;;;-5.88;66.55;100779.91;5043443;28;20046;-79
2024/01/04 03:35:33;;;;;;;2.40;0.50;;;;;;;-5.87;66.93;100776.53;5046639;28;20049;-79
2024/01/04 03:38:00;;;;;;;2.72;0.63;;;;;;;-5.86;67.12;100782.53;5044927;28;20080;-79
2024/01/04 03:40:27;;;;;;;2.08;0.30;;;;;;;-5.85;66.71;100774.06;5048509;28;20614;-78
2024/01/04 03:42:54;;;;;;;1.67;0.60;;;;;;;-5.85;66.57;100774.94;5044992;28;20080;-81
2024/01/04 03:45:21;;;;;;;0.77;0.30;;;;;;;-5.86;65.88;100778.31;5049319;28;20150;-79
2024/01/04 03:47:49;;;;;;;1.15;0.30;;;;;;;-5.84;65.46;100763.06;5048026;28;20042;-79
2024/01/04 03:50:17;;;;;;;1.40;0.50;;;;;;;-5.85;64.69;100767.28;5050702;28;20045;-79
2024/01/04 03:52:45;;;;;;;1.33;0.30;;;;;;;-5.92;64.84;100762.75;5041623;28;20045;-77
2024/01/04 03:55:14;;;;;;;5.18;0.60;;;;;;;-5.85;65.01;100777.50;5048760;28;20045;-76
2024/01/04 03:57:43;;;;;;;1.60;0.30;;;;;;;-5.89;65.08;100770.53;5048813;28;20045;-78
2024/01/04 04:00:16;;;;;;;0.65;0.30;;;;;;;-5.85;65.03;100774.94;5048483;28;20049;-76
2024/01/04 04:02:43;;;;;;;1.70;0.30;;;;;;;-5.86;65.21;100775.75;5045459;28;20049;-77
2024/01/04 04:05:10;;;;;;;0.70;0.30;;;;;;;-5.87;64.78;100776.53;5045341;28;20045;-78
2024/01/04 04:07:42;;;;;;;6.03;0.45;;;;;;;-5.86;65.16;100780.84;5047865;28;20478;-77
2024/01/04 04:10:09;;;;;;;2.33;0.50;;;;;;;-5.91;64.67;100772.13;5047296;28;20045;-77
2024/01/04 04:12:39;;;;;;;0.57;0.40;;;;;;;-5.88;65.26;100774.81;5047501;28;20051;-78
2024/01/04 04:15:08;;;;;;;3.25;0.52;;;;;;;-5.89;65.58;100778.19;5045213;28;20136;-77
2024/01/04 04:17:39;;;;;;;0.95;0.40;;;;;;;-5.88;64.75;100774.81;5048696;28;20479;-77
2024/01/04 04:20:07;;;;;;;5.75;0.43;;;;;;;-5.91;64.32;100777.22;5047254;28;20045;-78
2024/01/04 04:22:41;;;;;;;2.80;0.40;;;;;;;-5.86;63.95;100780.84;5045388;28;20068;-77
2024/01/04 04:25:10;;;;;;;1.17;0.40;;;;;;;-5.85;63.77;100780.03;5041435;28;20522;-74
2024/01/04 04:27:38;;;;;;;1.08;0.25;;;;;;;-5.84;63.76;100773.25;5042020;28;20459;-76
2024/01/04 04:30:06;;;;;;;0.73;0.30;;;;;;;-5.82;63.64;100776.75;5049773;28;20041;-76
2024/01/04 04:32:33;;;;;;;0.28;0.10;;;;;;;-5.86;63.61;100765.56;5047895;28;20491;-76
2024/01/04 04:34:59;;;;;;;4.68;0.73;;;;;;;-5.90;63.84;100771.31;5048190;28;20056;-75
2024/01/04 04:37:26;;;;;;;1.48;0.30;;;;;;;-5.85;64.02;100782.59;5047707;28;20053;-77
2024/01/04 04:39:53;;;;;;;0.55;0.30;;;;;;;-5.87;64.22;100783.31;5044319;28;20059;-77
2024/01/04 04:42:22;;;;;;;3.55;0.30;;;;;;;-5.86;64.19;100778.31;5043437;28;20479;-73
2024/01/04 04:44:49;;;;;;;1.48;0.40;;;;;;;-5.86;64.45;100780.00;5040880;28;20107;-74
2024/01/04 04:47:16;;;;;;;3.33;0.50;;;;;;;-5.91;64.83;100778.91;5039860;28;20045;-75
2024/01/04 04:49:44;;;;;;;1.20;0.40;;;;;;;-5.88;65.28;100790.09;5039316;28;20416;-74
2024/01/04 04:52:11;;;;;;;1.23;0.35;;;;;;;-5.90;65.64;100784.06;5039684;28;20072;-74
2024/01/04 04:54:38;;;;;;;2.35;0.47;;;;;;;-5.91;65.41;100779.78;5038435;28;20072;-74
2024/01/04 04:57:05;;;;;;;1.75;0.40;;;;;;;-5.95;66.19;100766.81;5041590;28;20576;-74
2024/01/04 04:59:34;;;;;;;4.32;0.38;;;;;;;-5.93;66.09;100786.47;5037785;28;20127;-74
2024/01/04 05:02:01;;;;;;;2.03;0.30;;;;;;;-5.94;66.14;100781.31;5039718;28;20487;-75
2024/01/04 05:04:28;;;;;;;1.00;0.40;;;;;;;-5.98;66.49;100786.28;5045258;28;20099;-75
2024/01/04 05:06:55;;;;;;;0.80;0.20;;;;;;;-5.94;66.53;100784.75;5040026;28;20083;-80
2024/01/04 05:09:22;;;;;;;1.13;0.60;;;;;;;-5.94;66.88;100787.28;5041648;28;20084;-76
2024/01/04 05:11:49;;;;;;;5.15;0.85;;;;;;;-5.92;67.21;100792.44;5041667;28;20563;-76
2024/01/04 05:14:16;;;;;;;4.72;0.90;;;;;;;-5.93;67.29;100789.00;5039583;28;20044;-76
2024/01/04 05:16:48;;;;;;;0.50;0.30;;;;;;;-6.02;67.40;100771.66;5038580;28;20037;-76
2024/01/04 05:19:15;;;;;;;1.55;0.30;;;;;;;-5.94;67.23;100789.84;5036684;28;20507;-75
2024/01/04 05:21:42;;;;;;;2.00;0.70;;;;;;;-5.93;66.91;100790.69;5043244;28;20072;-74
2024/01/04 05:24:09;;;;;;;0.82;0.82;;;;;;;-5.93;65.88;100785.59;5042116;28;20557;-74
2024/01/04 05:26:36;;;;;;;2.00;0.57;;;;;;;-5.96;65.58;100793.97;5041977;28;20098;-75
2024/01/04 05:29:03;;;;;;;1.35;0.30;;;;;;;-5.95;65.99;100792.28;5040255;28;20072;-75
2024/01/04 05:31:30;;;;;;;0.77;0.30;;;;;;;-6.04;65.24;100780.03;5040479;28;20127;-75
2024/01/04 05:33:59;;;;;;;1.45;0.30;;;;;;;-6.04;65.46;100782.56;5036171;28;20510;-75
2024/01/04 05:36:26;;;;;;;1.15;0.30;;;;;;;-5.98;65.61;100804.13;5038078;28;20103;-76
2024/01/04 05:38:55;;;;;;;2.20;0.38;;;;;;;-6.00;65.41;100787.03;5043639;28;20049;-74
2024/01/04 05:41:22;;;;;;;1.02;0.40;;;;;;;-5.99;65.63;100801.50;5035729;28;20045;-76
2024/01/04 05:43:52;;;;;;;4.03;0.50;;;;;;;-5.99;65.78;100806.59;5040462;28;20626;-75
2024/01/04 05:46:19;;;;;;;2.90;0.35;;;;;;;-5.99;66.06;100796.41;5040166;28;20515;-75
2024/01/04 05:48:46;;;;;;;3.33;0.30;;;;;;;-6.01;66.17;100809.09;5042664;28;20076;-75
2024/01/04 05:51:15;;;;;;;1.17;0.35;;;;;;;-6.07;65.99;100795.19;5040265;28;20534;-76
2024/01/04 05:53:42;;;;;;;0.30;0.20;;;;;;;-6.06;66.09;100804.59;5039152;28;20597;-76
2024/01/04 05:56:09;;;;;;;4.15;0.38;;;;;;;-6.02;66.03;100817.50;5039508;28;20400;-76
2024/01/04 05:58:36;;;;;;;2.15;0.70;;;;;;;-6.02;66.02;100824.28;5038811;28;20041;-76
2024/01/04 06:01:05;;;;;;;2.95;0.50;;;;;;;-6.02;66.57;100814.97;5039515;28;20129;-76
2024/01/04 06:03:32;;;;;;;2.95;0.77;;;;;;;-6.05;66.87;100806.31;5041737;28;20461;-75
2024/01/04 06:05:59;;;;;;;1.20;0.22;;;;;;;-6.09;67.63;100812.09;5039101;28;20049;-76
2024/01/04 06:08:27;;;;;;;0.85;0.40;;;;;;;-6.15;67.19;100789.75;5043456;28;20052;-75
2024/01/04 06:10:54;;;;;;;0.70;0.40;;;;;;;-6.07;67.58;100808.78;5039259;28;20056;-76
2024/01/04 06:13:26;;;;;;;0.98;0.32;;;;;;;-6.06;67.17;100809.69;5042270;28;20454;-77
2024/01/04 06:15:53;;;;;;;1.35;0.40;;;;;;;-6.08;67.08;100809.59;5045126;28;21308;-77
2024/01/04 06:18:20;;;;;;;0.75;0.30;;;;;;;-6.11;66.59;100804.38;5048250;28;20477;-77
2024/01/04 06:20:48;;;;;;;3.55;0.50;;;;;;;-6.05;65.81;100817.38;5041018;28;20479;-76
2024/01/04 06:23:16;;;;;;;14.05;1.67;;;;;;;-6.05;65.92;100804.63;5041592;28;20045;-77
2024/01/04 06:25:45;;;;;;;3.08;0.30;;;;;;;-6.10;65.71;100793.34;5042652;28;20084;-77
2024/01/04 06:28:12;;;;;;;1.85;0.52;;;;;;;-6.02;65.54;100804.75;5045675;28;20076;-76
2024/01/04 06:30:39;;;;;;;3.40;0.50;;;;;;;-6.01;65.79;100813.28;5044094;28;20083;-77
2024/01/04 06:33:06;;;;;;;2.63;0.40;;;;;;;-6.01;65.69;100798.00;5043055;28;20056;-77
2024/01/04 06:35:33;;;;;;;1.83;0.40;;;;;;;-6.05;66.44;100799.53;5043369;28;20076;-77
2024/01/04 06:38:02;;;;;;;0.88;0.38;;;;;;;-6.07;66.60;100803.69;5039903;28;20075;-76
2024/01/04 06:40:29;;;;;;;4.95;0.32;;;;;;;-6.05;66.73;100806.31;5040078;28;20492;-78
2024/01/04 06:42:58;;;;;;;4.53;0.60;;;;;;;-6.06;67.46;100815.63;5045098;28;20045;-78
2024/01/04 06:45:26;;;;;;;6.38;0.40;;;;;;;-6.05;67.59;100821.59;5041608;28;20538;-77
2024/01/04 06:47:53;;;;;;;4.10;0.50;;;;;;;-6.12;68.43;100809.38;5041961;28;20503;-77
2024/01/04 06:50:20;;;;;;;1.02;0.75;;;;;;;-6.07;69.10;100823.19;5047898;28;21844;-77
2024/01/04 06:52:48;;;;;;;1.60;0.55;;;;;;;-6.07;69.42;100818.09;5040126;28;20091;-77
2024/01/04 06:55:15;;;;;;;0.32;0.17;;;;;;;-6.07;68.86;100818.09;5045277;28;20052;-77
2024/01/04 06:57:43;;;;;;;4.45;0.70;;;;;;;-6.10;69.25;100821.38;5044705;28;20049;-77
2024/01/04 07:00:12;;;;;;;1.48;0.52;;;;;;;-6.11;69.49;100816.22;5046358;28;20565;-77
2024/01/04 07:02:40;;;;;;;0.68;0.28;;;;;;;-6.12;69.13;100815.38;5048377;28;20045;-77
2024/01/04 07:05:09;;;;;;;1.90;0.40;;;;;;;-6.22;69.66;100811.50;5042358;28;20041;-77
2024/01/04 07:07:36;;;;;;;1.65;0.55;;;;;;;-6.14;69.63;100826.28;5043128;28;20164;-78
2024/01/04 07:10:04;;;;;;;0.55;0.40;;;;;;;-6.18;69.50;100829.47;5040676;28;20075;-76
2024/01/04 07:12:31;;;;;;;2.38;0.60;;;;;;;-6.16;69.38;100828.75;5039374;28;20076;-76
2024/01/04 07:14:58;;;;;;;3.75;0.40;;;;;;;-6.31;69.66;100795.81;5041595;28;20111;-76
2024/01/04 07:17:26;;;;;;;0.65;0.30;;;;;;;-6.18;69.67;100830.34;5041099;28;20123;-77
2024/01/04 07:19:59;;;;;;;2.70;0.75;;;;;;;-6.20;70.42;100822.66;5047663;28;20491;-77
2024/01/04 07:22:27;;;;;;;1.10;0.60;;;;;;;-6.22;70.17;100824.25;5043081;28;20136;-76
2024/01/04 07:24:56;;;;;;;2.70;0.43;;;;;;;-6.21;70.00;100831.09;5038316;28;20045;-77
2024/01/04 07:27:22;;;;;;;2.38;0.47;;;;;;;-6.23;70.23;100825.06;5039941;28;20762;-73
2024/01/04 07:29:50;;;;;;;2.30;0.80;;;;;;;-6.22;70.07;100820.81;5046751;28;20080;-74
2024/01/04 07:32:18;;;;;;;3.85;0.45;;;;;;;-6.22;69.97;100824.25;5044741;28;20099;-74
2024/01/04 07:34:47;;;;;;;1.58;0.70;;;;;;;-6.22;70.20;100825.91;5042036;28;20037;-75
2024/01/04 07:37:14;;;;;;;1.77;0.40;;;;;;;-6.22;69.91;100829.34;5037811;28;20411;-76
2024/01/04 07:39:42;;;;;;;2.13;0.65;;;;;;;-6.22;70.12;100823.38;5043753;28;20583;-75
2024/01/04 07:42:18;;;;;;;1.08;0.32;;;;;;;-6.23;70.07;100839.47;5040679;28;20076;-75
2024/01/04 07:44:45;;;;;;;2.28;0.68;;;;;;;-6.25;70.59;100834.28;5039703;28;20068;-75
2024/01/04 07:47:12;;;;;;;13.90;0.63;;;;;;;-6.33;70.04;100822.00;5040735;28;20052;-74
2024/01/04 07:49:39;;;;;;;2.85;0.75;;;;;;;-6.25;69.81;100834.28;5044101;28;20470;-75
2024/01/04 07:52:08;;;;;;;1.63;0.80;;;;;;;-6.26;70.30;100827.47;5043478;28;20076;-75
2024/01/04 07:54:36;;;;;;;0.63;0.35;;;;;;;-6.27;70.06;100824.84;5038925;28;20057;-74
2024/01/04 07:57:03;;;;;;;0.52;0.20;;;;;;;-6.28;70.16;100828.19;5039294;28;20119;-76
2024/01/04 07:59:30;;;;;;;1.05;0.40;;;;;;;-6.27;70.46;100825.69;5044725;28;20080;-75
2024/01/04 08:01:57;;;;;;;1.58;0.40;;;;;;;-6.27;70.62;100823.16;5045389;28;20612;-76
2024/01/04 08:04:24;;;;;;;1.88;0.75;;;;;;;-6.28;70.68;100823.97;5041656;28;20098;-77
2024/01/04 08:06:51;;;;;;;2.55;0.57;;;;;;;-6.28;70.41;100815.47;5044173;28;20443;-74
2024/01/04 08:09:20;;;;;;;2.85;0.45;;;;;;;-6.29;70.64;100809.50;5039035;28;20080;-74
2024/01/04 08:11:47;;;;;;;3.80;0.75;;;;;;;-6.26;70.43;100821.50;5041239;28;20045;-72
2024/01/04 08:14:14;;;;;;;3.75;0.60;;;;;;;-6.32;70.45;100809.38;5043738;28;20048;-74
2024/01/04 08:16:41;;;;;;;1.27;0.22;;;;;;;-6.27;70.70;100825.69;5042473;28;20045;-74
2024/01/04 08:19:10;;;;;;;1.25;0.50;;;;;;;-6.30;70.86;100825.56;5043246;28;20047;-74
2024/01/04 08:21:37;;;;;;;0.90;0.63;;;;;;;-6.26;70.77;100844.41;5040235;28;20088;-75
2024/01/04 08:24:05;;;;;;;0.25;0.10;;;;;;;-6.27;70.59;100824.84;5040883;28;20052;-74
2024/01/04 08:26:34;;;;;;;1.10;0.90;;;;;;;-6.28;70.83;100834.16;5040904;28;20049;-75
2024/01/04 08:29:01;;;;;;;2.05;0.47;;;;;;;-6.29;70.42;100832.41;5039296;28;20140;-74
2024/01/04 08:31:28;;;;;;;1.02;0.50;;;;;;;-6.28;70.60;100836.69;5044727;28;20561;-73
2024/01/04 08:33:58;;;;;;;3.50;0.82;;;;;;;-6.28;70.62;100839.25;5047932;28;20092;-79
2024/01/04 08:36:25;;;;;;;2.70;0.55;;;;;;;-6.36;70.42;100824.41;5040525;28;20894;-79
2024/01/04 08:38:52;;;;;;;3.35;0.50;;;;;;;-6.30;70.27;100833.19;5050035;28;20584;-78
2024/01/04 08:41:19;;;;;;;1.33;0.68;;;;;;;-6.39;70.57;100820.06;5043346;28;20049;-79
2024/01/04 08:43:48;;;;;;;1.58;0.47;;;;;;;-6.35;70.32;100826.16;5046671;28;20044;-80
2024/01/04 08:46:16;;;;;;;0.35;0.20;;;;;;;-6.29;70.21;100837.50;5045783;28;20052;-80
2024/01/04 08:48:43;;;;;;;0.20;0.10;;;;;;;-6.30;70.17;100845.94;5050684;28;20053;-81
2024/01/04 08:51:10;;;;;;;1.58;0.50;;;;;;;-6.27;70.07;100835.88;5045908;28;20052;-76
2024/01/04 08:53:37;;;;;;;3.25;0.85;;;;;;;-6.27;69.95;100840.97;5043040;28;20045;-77
2024/01/04 08:56:08;;;;;;;0.90;0.35;;;;;;;-6.27;70.26;100851.16;5046242;28;20487;-76
2024/01/04 08:58:35;;;;;;;1.58;0.22;;;;;;;-6.28;70.61;100846.88;5042598;28;20048;-76
2024/01/04 09:01:04;;;;;;;0.50;0.28;;;;;;;-6.29;70.43;100842.59;5050111;28;20075;-76
2024/01/04 09:03:32;;;;;;;1.80;0.80;;;;;;;-6.29;70.68;100847.69;5041574;28;20057;-77
2024/01/04 09:05:59;;;;;;;3.70;0.30;;;;;;;-6.27;70.51;100835.00;5046142;28;20491;-76
2024/01/04 09:08:26;;;;;;;1.05;0.60;;;;;;;-6.28;70.23;100843.47;5045333;28;20072;-77
2024/01/04 09:10:54;;;;;;;1.70;0.30;;;;;;;-6.25;70.59;100839.38;5044369;28;20052;-76
2024/01/04 09:13:21;;;;;;;1.60;0.70;;;;;;;-6.27;70.44;100840.09;5040744;28;20137;-77
2024/01/04 09:15:48;;;;;;;0.70;0.40;;;;;;;-6.23;70.36;100852.19;5046823;28;20056;-76
2024/01/04 09:18:16;;;;;;;2.03;0.88;;;;;;;-6.25;70.51;100849.56;5039402;28;21257;-76
2024/01/04 09:20:44;;;;;;;1.38;0.60;;;;;;;-6.25;70.35;100838.50;5048953;28;20076;-76
2024/01/04 09:23:10;;;;;;;2.17;1.00;;;;;;;-6.28;70.64;100834.16;5037202;28;20065;-73
2024/01/04 09:25:37;;;;;;;2.97;0.75;;;;;;;-6.26;70.29;100842.75;5039821;28;20076;-74
2024/01/04 09:28:05;;;;;;;1.83;0.80;;;;;;;-6.24;70.47;100840.25;5035291;28;20567;-74
2024/01/04 09:30:32;;;;;;;2.20;1.08;;;;;;;-6.25;70.42;100843.59;5038573;28;20049;-74
2024/01/04 09:32:59;;;;;;;2.13;0.40;;;;;;;-6.35;70.39;100821.97;5037048;28;20052;-73
2024/01/04 09:35:27;;;;;;;1.40;0.65;;;;;;;-6.26;70.33;100850.38;5041608;28;20509;-74
2024/01/04 09:37:54;;;;;;;3.83;0.70;;;;;;;-6.27;70.18;100850.28;5031808;28;20076;-74
2024/01/04 09:40:21;;;;;;;1.00;0.60;;;;;;;-6.33;70.22;100838.16;5038715;28;20103;-74
2024/01/04 09:42:51;;;;;;;1.90;0.40;;;;;;;-6.31;70.20;100856.06;5037164;28;20110;-75
2024/01/04 09:45:22;;;;;;;1.95;0.68;;;;;;;-6.31;70.11;100854.38;5042029;28;20069;-74
2024/01/04 09:47:53;;;;;;;1.60;0.80;;;;;;;-6.35;70.14;100833.78;5040044;28;20049;-75
2024/01/04 09:50:21;;;;;;;8.43;0.68;;;;;;;-6.36;69.83;100840.56;5040410;28;20045;-74
2024/01/04 09:52:54;;;;;;;1.10;0.30;;;;;;;-6.34;70.05;100858.47;5037229;28;20053;-75
2024/01/04 09:55:23;;;;;;;2.65;0.80;;;;;;;-6.34;69.77;100843.19;5038119;28;20145;-75
2024/01/04 09:57:53;;;;;;;2.03;0.40;;;;;;;-6.36;69.65;100837.16;5040257;28;20495;-75
2024/01/04 10:00:21;;;;;;;2.85;0.55;;;;;;;-6.36;69.84;100845.66;5041022;28;20136;-76
2024/01/04 10:02:49;;;;;;;4.15;0.95;;;;;;;-6.36;69.85;100845.66;5040676;28;20088;-74
2024/01/04 10:05:17;;;;;;;3.97;1.02;;;;;;;-6.35;69.84;100839.78;5040963;28;20099;-74
2024/01/04 10:07:49;;;;;;;3.85;1.00;;;;;;;-6.36;69.31;100839.69;5041473;28;20095;-75
2024/01/04 10:10:22;;;;;;;5.38;0.50;;;;;;;-6.38;69.76;100836.19;5040355;28;20057;-76
2024/01/04 10:12:50;;;;;;;2.50;0.90;;;;;;;-6.39;69.44;100845.50;5039244;28;20056;-75
2024/01/04 10:15:17;;;;;;;1.90;0.68;;;;;;;-6.42;69.43;100836.06;5041205;28;20077;-75
2024/01/04 10:17:47;;;;;;;2.10;0.80;;;;;;;-6.41;69.49;100836.91;5036420;28;20499;-75
2024/01/04 10:20:14;;;;;;;1.92;0.60;;;;;;;-6.45;69.50;100832.50;5039698;28;20068;-73
2024/01/04 10:22:43;;;;;;;0.77;0.20;;;;;;;-6.40;69.57;100842.91;5040671;28;20573;-73
2024/01/04 10:25:12;;;;;;;1.75;0.63;;;;;;;-6.42;69.38;100842.81;5036609;28;20050;-74
2024/01/04 10:27:40;;;;;;;3.78;0.52;;;;;;;-6.41;69.86;100844.56;5036425;28;20107;-76
2024/01/04 10:30:08;;;;;;;2.13;0.60;;;;;;;-6.43;69.50;100836.00;5041323;28;20603;-75
2024/01/04 10:32:35;;;;;;;3.33;0.80;;;;;;;-6.44;69.54;100841.88;5033619;28;20050;-74
2024/01/04 10:35:06;;;;;;;0.80;0.47;;;;;;;-6.45;69.13;100857.94;5042631;28;20073;-74
2024/01/04 10:37:36;;;;;;;3.63;0.43;;;;;;;-6.47;69.38;100841.72;5040424;28;20107;-72
2024/01/04 10:40:05;;;;;;;1.27;0.65;;;;;;;-6.49;68.76;100843.34;5040706;28;20985;-73
2024/01/04 10:42:35;;;;;;;0.60;0.40;;;;;;;-6.51;69.34;100845.81;5036957;28;20060;-75
2024/01/04 10:45:03;;;;;;;1.75;0.50;;;;;;;-6.53;69.11;100842.31;5037831;28;20042;-74
2024/01/04 10:47:30;;;;;;;3.65;0.40;;;;;;;-6.53;68.97;100844.00;5037447;28;20110;-73
2024/01/04 10:50:03;;;;;;;1.23;0.52;;;;;;;-6.56;68.76;100832.00;5040621;28;20053;-74
2024/01/04 10:52:32;;;;;;;2.30;0.55;;;;;;;-6.56;68.79;100836.22;5039372;28;20058;-76
2024/01/04 10:55:00;;;;;;;2.10;0.65;;;;;;;-6.58;68.87;100847.97;5038953;28;20061;-76
2024/01/04 10:57:31;;;;;;;3.50;0.57;;;;;;;-6.59;69.13;100856.44;5038239;28;20114;-77
2024/01/04 10:59:59;;;;;;;1.67;0.55;;;;;;;-6.62;69.15;100838.47;5041363;28;20040;-77
2024/01/04 11:02:36;;;;;;;1.95;0.60;;;;;;;-6.71;69.16;100837.22;5044810;28;20055;-76
2024/01/04 11:05:05;;;;;;;1.02;0.40;;;;;;;-6.63;69.03;100845.22;5045434;28;20796;-76
2024/01/04 11:07:33;;;;;;;0.93;0.08;;;;;;;-6.65;69.08;100834.09;5045461;28;20150;-75
2024/01/04 11:10:00;;;;;;;1.55;0.55;;;;;;;-6.66;68.94;100835.78;5045540;28;20098;-76
2024/01/04 11:12:30;;;;;;;2.22;0.30;;;;;;;-6.65;69.09;100845.16;5039803;28;20102;-76
2024/01/04 11:14:57;;;;;;;2.20;0.50;;;;;;;-6.69;68.96;100833.09;5044379;28;20037;-76
2024/01/04 11:17:48;;;;;;;2.38;1.17;;;;;;;-6.67;68.56;100834.00;5048886;28;20107;-76
2024/01/04 11:20:22;;;;;;;2.22;0.50;;;;;;;-6.73;68.56;100828.63;5047573;28;20095;-75
2024/01/04 11:23:22;;;;;;;2.92;0.50;;;;;;;-6.79;69.04;100838.53;5045588;28;20041;-77
2024/01/04 11:26:14;;;;;;;1.70;0.63;;;;;;;-6.77;68.62;100847.13;5040573;28;20061;-77
2024/01/04 11:28:42;;;;;;;3.10;0.50;;;;;;;-6.77;68.74;100839.47;5046374;28;20814;-75